createdAt,value
2019-01-06T00:01:42.073Z,7.69
2019-01-06T00:04:18.132Z,7.67
2019-01-06T00:07:03.334Z,7.71
2019-01-06T00:09:39.576Z,7.62
2019-01-06T00:12:15.128Z,7.62
2019-01-06T00:14:54.393Z,7.62
2019-01-06T00:17:43.197Z,7.68
2019-01-06T00:20:29.552Z,7.61
2019-01-06T00:23:02.539Z,7.61
2019-01-06T00:25:38.507Z,7.58
2019-01-06T00:28:14.583Z,7.64
2019-01-06T00:31:00.913Z,7.63
2019-01-06T00:33:31.086Z,7.63
2019-01-06T00:36:01.294Z,7.79
2019-01-06T00:38:34.106Z,7.79
2019-01-06T00:41:10.334Z,7.76
2019-01-06T00:43:40.579Z,7.70
2019-01-06T00:46:10.638Z,7.75
2019-01-06T00:48:46.754Z,7.75
2019-01-06T00:51:19.648Z,7.80
2019-01-06T00:54:04.734Z,7.78
2019-01-06T00:56:37.684Z,7.82
2019-01-06T00:59:16.548Z,7.78
2019-01-06T01:01:49.410Z,7.77
2019-01-06T01:04:19.535Z,7.75
2019-01-06T01:07:06.144Z,7.74
2019-01-06T01:09:45.580Z,7.74
2019-01-06T01:12:15.737Z,7.74
2019-01-06T01:14:45.854Z,7.76
2019-01-06T01:17:18.733Z,7.85
2019-01-06T01:19:49.167Z,7.75
2019-01-06T01:22:22.331Z,7.79
2019-01-06T01:24:52.438Z,7.80
2019-01-06T01:27:25.460Z,7.80
2019-01-06T01:30:07.797Z,7.85
2019-01-06T01:32:46.444Z,7.81
2019-01-06T01:35:32.776Z,7.77
2019-01-06T01:38:08.812Z,7.73
2019-01-06T01:40:53.994Z,7.75
2019-01-06T01:43:42.146Z,7.80
2019-01-06T01:46:27.600Z,7.84
2019-01-06T01:49:14.239Z,7.88
2019-01-06T01:51:59.340Z,7.93
2019-01-06T01:54:38.713Z,7.86
2019-01-06T01:57:08.842Z,7.86
2019-01-06T01:59:44.995Z,7.89
2019-01-06T02:02:31.497Z,7.89
2019-01-06T02:05:04.421Z,7.80
2019-01-06T02:07:37.547Z,7.81
2019-01-06T02:10:26.561Z,7.84
2019-01-06T02:12:57.808Z,7.82
2019-01-06T02:15:37.143Z,7.82
2019-01-06T02:18:07.293Z,7.88
2019-01-06T02:20:43.125Z,7.93
2019-01-06T02:23:16.164Z,7.88
2019-01-06T02:25:58.209Z,7.86
2019-01-06T02:28:30.761Z,7.91
2019-01-06T02:31:00.855Z,7.93
2019-01-06T02:33:31.154Z,7.93
2019-01-06T02:36:01.257Z,7.98
2019-01-06T02:38:34.436Z,8.01
2019-01-06T02:41:10.500Z,8.04
2019-01-06T02:43:40.670Z,8.07
2019-01-06T02:46:19.386Z,8.13
2019-01-06T02:49:01.848Z,8.15
2019-01-06T02:51:37.722Z,8.05
2019-01-06T02:54:10.822Z,8.11
2019-01-06T02:56:56.752Z,8.12
2019-01-06T02:59:35.722Z,8.21
2019-01-06T03:02:08.403Z,8.07
2019-01-06T03:04:44.519Z,8.07
2019-01-06T03:07:20.733Z,8.11
2019-01-06T03:10:07.342Z,8.07
2019-01-06T03:12:37.465Z,8.04
2019-01-06T03:15:11.271Z,8.10
2019-01-06T03:17:50.555Z,8.10
2019-01-06T03:20:20.697Z,8.13
2019-01-06T03:22:59.868Z,8.10
2019-01-06T03:25:45.927Z,8.05
2019-01-06T03:28:16.058Z,8.05
2019-01-06T03:30:49.005Z,8.07
2019-01-06T03:33:28.444Z,8.03
2019-01-06T03:36:14.986Z,8.04
2019-01-06T03:38:45.219Z,8.08
2019-01-06T03:41:15.441Z,8.06
2019-01-06T03:43:54.441Z,8.07
2019-01-06T03:46:40.439Z,8.09
2019-01-06T03:49:26.674Z,8.08
2019-01-06T03:52:05.580Z,8.10
2019-01-06T03:54:50.858Z,8.15
2019-01-06T03:57:37.100Z,8.14
2019-01-06T04:00:14.669Z,8.14
2019-01-06T04:02:57.031Z,8.12
2019-01-06T04:05:43.050Z,8.06
2019-01-06T04:08:29.106Z,7.98
2019-01-06T04:11:05.094Z,8.00
2019-01-06T04:13:40.918Z,8.02
2019-01-06T04:16:26.917Z,8.01
2019-01-06T04:19:15.043Z,7.98
2019-01-06T04:21:57.268Z,7.98
2019-01-06T04:24:39.041Z,8.00
2019-01-06T04:27:25.563Z,7.98
2019-01-06T04:30:11.998Z,8.00
2019-01-06T04:32:44.604Z,7.95
2019-01-06T04:35:17.352Z,7.97
2019-01-06T04:37:53.154Z,7.99
2019-01-06T04:40:35.427Z,8.02
2019-01-06T04:43:17.731Z,8.05
2019-01-06T04:45:56.530Z,7.98
2019-01-06T04:48:32.229Z,7.98
2019-01-06T04:51:04.887Z,8.04
2019-01-06T04:53:35.087Z,8.06
2019-01-06T04:56:23.631Z,8.04
2019-01-06T04:58:53.750Z,8.06
2019-01-06T05:01:26.693Z,8.10
2019-01-06T05:04:08.560Z,8.17
2019-01-06T05:06:47.429Z,8.21
2019-01-06T05:09:32.581Z,8.15
2019-01-06T05:12:18.750Z,8.14
2019-01-06T05:14:51.276Z,8.18
2019-01-06T05:17:36.323Z,8.16
2019-01-06T05:20:24.792Z,8.16
2019-01-06T05:23:11.135Z,8.16
2019-01-06T05:25:57.786Z,8.07
2019-01-06T05:28:33.999Z,8.07
2019-01-06T05:31:20.551Z,8.08
2019-01-06T05:33:50.630Z,8.09
2019-01-06T05:36:37.240Z,8.10
2019-01-06T05:39:24.575Z,8.10
2019-01-06T05:41:54.721Z,8.09
2019-01-06T05:44:33.807Z,8.11
2019-01-06T05:47:06.717Z,7.99
2019-01-06T05:49:51.581Z,7.97
2019-01-06T05:52:21.704Z,7.96
2019-01-06T05:55:08.272Z,7.92
2019-01-06T05:57:47.521Z,7.92
2019-01-06T06:00:17.667Z,7.81
2019-01-06T06:02:56.562Z,7.84
2019-01-06T06:05:38.407Z,7.84
2019-01-06T06:08:11.235Z,7.85
2019-01-06T06:10:59.100Z,7.91
2019-01-06T06:13:29.248Z,7.93
2019-01-06T06:16:15.800Z,7.93
2019-01-06T06:19:02.083Z,7.97
2019-01-06T06:21:35.095Z,7.98
2019-01-06T06:24:10.929Z,8.04
2019-01-06T06:26:57.529Z,7.98
2019-01-06T06:29:30.359Z,7.96
2019-01-06T06:32:06.208Z,7.84
2019-01-06T06:34:51.320Z,7.79
2019-01-06T06:37:24.091Z,7.79
2019-01-06T06:40:03.251Z,7.77
2019-01-06T06:42:45.678Z,7.84
2019-01-06T06:45:24.708Z,7.75
2019-01-06T06:47:57.805Z,7.74
2019-01-06T06:50:36.476Z,7.70
2019-01-06T06:53:22.659Z,7.67
2019-01-06T06:55:58.828Z,7.75
2019-01-06T06:58:43.984Z,7.71
2019-01-06T07:01:36.649Z,7.77
2019-01-06T07:04:06.742Z,7.85
2019-01-06T07:06:36.859Z,7.85
2019-01-06T07:09:10.689Z,7.87
2019-01-06T07:11:58.881Z,7.89
2019-01-06T07:14:29.084Z,7.91
2019-01-06T07:17:35.724Z,7.82
2019-01-06T07:20:23.177Z,7.89
2019-01-06T07:22:53.453Z,7.89
2019-01-06T07:25:27.015Z,7.88
2019-01-06T07:28:12.786Z,7.87
2019-01-06T07:30:58.909Z,7.81
2019-01-06T07:33:40.730Z,7.86
2019-01-06T07:36:10.833Z,7.90
2019-01-06T07:38:44.114Z,7.86
2019-01-06T07:41:16.980Z,7.86
2019-01-06T07:44:03.140Z,7.76
2019-01-06T07:46:33.311Z,7.76
2019-01-06T07:49:19.274Z,7.83
2019-01-06T07:52:05.802Z,7.83
2019-01-06T07:54:41.726Z,7.90
2019-01-06T07:57:23.661Z,7.91
2019-01-06T07:59:56.770Z,7.96
2019-01-06T08:02:36.029Z,7.93
2019-01-06T08:05:13.104Z,7.97
2019-01-06T08:07:43.212Z,7.96
2019-01-06T08:10:22.454Z,7.98
2019-01-06T08:12:53.059Z,7.96
2019-01-06T08:15:35.421Z,7.96
2019-01-06T08:18:21.496Z,7.93
2019-01-06T08:21:07.729Z,7.97
2019-01-06T08:23:43.719Z,7.99
2019-01-06T08:26:26.688Z,8.07
2019-01-06T08:29:12.805Z,8.07
2019-01-06T08:31:59.112Z,8.13
2019-01-06T08:34:32.154Z,8.12
2019-01-06T08:37:05.314Z,8.14
2019-01-06T08:39:35.517Z,8.12
2019-01-06T08:42:21.911Z,8.16
2019-01-06T08:44:52.038Z,8.18
2019-01-06T08:47:24.846Z,8.24
2019-01-06T08:49:54.967Z,8.25
2019-01-06T08:52:40.448Z,8.28
2019-01-06T08:55:27.023Z,8.27
2019-01-06T08:58:08.834Z,8.23
2019-01-06T09:00:42.027Z,8.17
2019-01-06T09:03:12.307Z,8.21
2019-01-06T09:05:48.480Z,8.21
2019-01-06T09:08:36.568Z,8.24
2019-01-06T09:11:23.250Z,8.20
2019-01-06T09:14:02.074Z,8.24
2019-01-06T09:16:47.989Z,8.24
2019-01-06T09:19:18.113Z,8.29
2019-01-06T09:22:00.361Z,8.23
2019-01-06T09:24:46.991Z,8.20
2019-01-06T09:27:19.978Z,8.22
2019-01-06T09:29:56.272Z,8.28
2019-01-06T09:32:32.750Z,8.25
2019-01-06T09:35:19.323Z,8.31
2019-01-06T09:38:06.007Z,8.26
2019-01-06T09:40:54.377Z,8.31
2019-01-06T09:43:33.093Z,8.28
2019-01-06T09:46:12.282Z,8.28
2019-01-06T09:48:47.833Z,8.32
2019-01-06T09:51:17.954Z,8.34
2019-01-06T09:54:05.753Z,8.26
2019-01-06T09:56:47.726Z,8.33
2019-01-06T09:59:26.883Z,8.32
2019-01-06T10:02:05.863Z,8.32
2019-01-06T10:04:41.971Z,8.30
2019-01-06T10:07:28.063Z,8.28
2019-01-06T10:10:09.963Z,8.33
2019-01-06T10:12:45.944Z,8.35
2019-01-06T10:15:16.101Z,8.29
2019-01-06T10:17:48.897Z,8.34
2019-01-06T10:20:33.945Z,8.31
2019-01-06T10:23:19.774Z,8.35
2019-01-06T10:25:59.179Z,8.43
2019-01-06T10:28:32.151Z,8.30
2019-01-06T10:31:17.327Z,8.29
2019-01-06T10:34:03.797Z,8.36
2019-01-06T10:36:46.055Z,8.44
2019-01-06T10:39:21.911Z,8.43
2019-01-06T10:41:58.067Z,8.50
2019-01-06T10:44:28.179Z,8.58
2019-01-06T10:46:58.269Z,8.62
2019-01-06T10:49:37.385Z,8.60
2019-01-06T10:52:07.579Z,8.52
2019-01-06T10:54:40.967Z,8.40
2019-01-06T10:57:13.912Z,8.44
2019-01-06T10:59:44.069Z,8.48
2019-01-06T11:02:16.977Z,8.39
2019-01-06T11:05:03.208Z,8.42
2019-01-06T11:07:36.119Z,8.37
2019-01-06T11:10:08.853Z,8.36
2019-01-06T11:12:47.798Z,8.25
2019-01-06T11:15:26.771Z,8.26
2019-01-06T11:18:02.748Z,8.26
2019-01-06T11:20:38.703Z,8.17
2019-01-06T11:23:26.929Z,8.13
2019-01-06T11:26:03.563Z,8.22
2019-01-06T11:28:52.068Z,8.20
2019-01-06T11:31:39.020Z,8.20
2019-01-06T11:34:09.378Z,8.24
2019-01-06T11:36:56.236Z,8.13
2019-01-06T11:39:26.475Z,8.15
2019-01-06T11:41:59.567Z,8.20
2019-01-06T11:44:45.929Z,8.31
2019-01-06T11:47:27.865Z,8.31
2019-01-06T11:49:58.063Z,8.38
2019-01-06T11:52:41.002Z,8.30
2019-01-06T11:55:13.914Z,8.34
2019-01-06T11:57:47.268Z,8.34
2019-01-06T12:00:28.405Z,8.33
2019-01-06T12:03:07.412Z,8.33
2019-01-06T12:05:49.280Z,8.22
2019-01-06T12:08:22.294Z,8.26
2019-01-06T12:10:52.517Z,8.26
2019-01-06T12:13:22.741Z,8.44
2019-01-06T12:16:09.373Z,8.44
2019-01-06T12:18:55.866Z,8.54
2019-01-06T12:21:43.988Z,8.53
2019-01-06T12:24:26.163Z,8.54
2019-01-06T12:27:12.905Z,8.53
2019-01-06T12:29:42.980Z,8.46
2019-01-06T12:32:13.104Z,8.40
2019-01-06T12:35:01.492Z,8.40
2019-01-06T12:37:41.158Z,8.38
2019-01-06T12:40:23.334Z,8.38
2019-01-06T12:42:56.427Z,8.29
2019-01-06T12:45:29.333Z,8.26
2019-01-06T12:48:14.598Z,8.32
2019-01-06T12:50:44.742Z,8.22
2019-01-06T12:53:38.926Z,8.42
2019-01-06T12:56:02.972Z,8.44
2019-01-06T12:58:49.237Z,8.49
2019-01-06T13:01:35.361Z,8.58
2019-01-06T13:04:21.817Z,8.62
2019-01-06T13:07:07.063Z,8.70
2019-01-06T13:09:37.254Z,8.58
2019-01-06T13:12:24.044Z,8.56
2019-01-06T13:14:54.113Z,8.58
2019-01-06T13:17:36.471Z,8.42
2019-01-06T13:20:22.657Z,8.38
2019-01-06T13:22:52.779Z,8.28
2019-01-06T13:25:41.183Z,8.22
2019-01-06T13:28:23.190Z,8.24
2019-01-06T13:31:05.192Z,8.21
2019-01-06T13:33:38.521Z,8.07
2019-01-06T13:36:25.718Z,8.07
2019-01-06T13:39:01.449Z,8.08
2019-01-06T13:41:37.431Z,8.02
2019-01-06T13:44:23.953Z,8.08
2019-01-06T13:46:59.683Z,8.09
2019-01-06T13:49:29.828Z,8.08
2019-01-06T13:52:15.822Z,8.00
2019-01-06T13:54:49.267Z,8.04
2019-01-06T13:57:31.086Z,8.03
2019-01-06T14:00:17.539Z,8.08
2019-01-06T14:03:02.845Z,8.02
2019-01-06T14:05:49.254Z,8.03
2019-01-06T14:08:28.301Z,8.08
2019-01-06T14:10:58.813Z,8.08
2019-01-06T14:13:40.746Z,8.08
2019-01-06T14:16:26.870Z,8.12
2019-01-06T14:18:59.827Z,8.14
2019-01-06T14:21:36.192Z,8.10
2019-01-06T14:24:08.510Z,8.06
2019-01-06T14:26:44.702Z,8.04
2019-01-06T14:29:18.052Z,8.01
2019-01-06T14:31:51.163Z,7.97
2019-01-06T14:34:21.231Z,7.98
2019-01-06T14:36:57.377Z,8.04
2019-01-06T14:39:30.548Z,8.04
2019-01-06T14:42:00.675Z,8.07
2019-01-06T14:44:47.064Z,8.07
2019-01-06T14:47:20.145Z,8.04
2019-01-06T14:50:02.445Z,8.04
2019-01-06T14:52:49.975Z,8.16
2019-01-06T14:55:38.744Z,8.20
2019-01-06T14:58:14.877Z,8.16
2019-01-06T15:00:59.958Z,8.13
2019-01-06T15:03:46.313Z,8.20
2019-01-06T15:06:28.395Z,8.20
2019-01-06T15:09:15.073Z,8.25
2019-01-06T15:11:57.593Z,8.25
2019-01-06T15:14:27.801Z,8.08
2019-01-06T15:16:58.991Z,8.08
2019-01-06T15:19:38.156Z,8.13
2019-01-06T15:22:24.880Z,8.12
2019-01-06T15:25:06.903Z,8.11
2019-01-06T15:27:42.948Z,8.15
2019-01-06T15:30:28.153Z,8.17
2019-01-06T15:33:03.879Z,8.17
2019-01-06T15:35:52.522Z,8.17
2019-01-06T15:38:28.506Z,8.19
2019-01-06T15:41:14.424Z,8.14
2019-01-06T15:43:44.542Z,8.14
2019-01-06T15:46:20.457Z,8.20
2019-01-06T15:48:53.292Z,8.16
2019-01-06T15:51:39.724Z,8.16
2019-01-06T15:54:18.748Z,8.16
2019-01-06T15:57:05.054Z,8.14
2019-01-06T15:59:40.889Z,8.13
2019-01-06T16:02:26.191Z,8.06
2019-01-06T16:04:58.966Z,7.99
2019-01-06T16:07:45.408Z,8.03
2019-01-06T16:10:15.590Z,8.07
2019-01-06T16:12:47.206Z,8.02
2019-01-06T16:15:20.314Z,8.02
2019-01-06T16:17:56.008Z,8.02
2019-01-06T16:20:26.119Z,8.02
2019-01-06T16:23:02.121Z,8.01
2019-01-06T16:25:47.290Z,7.99
2019-01-06T16:28:20.480Z,7.99
2019-01-06T16:31:01.519Z,7.99
2019-01-06T16:33:46.402Z,8.04
2019-01-06T16:36:25.437Z,7.95
2019-01-06T16:39:01.410Z,7.95
2019-01-06T16:41:47.819Z,7.92
2019-01-06T16:44:20.735Z,7.90
2019-01-06T16:47:09.492Z,7.88
2019-01-06T16:49:48.669Z,7.90
2019-01-06T16:52:21.812Z,7.86
2019-01-06T16:55:06.851Z,7.84
2019-01-06T16:57:37.078Z,7.88
2019-01-06T17:00:25.597Z,7.88
2019-01-06T17:03:05.089Z,7.93
2019-01-06T17:05:44.015Z,7.90
2019-01-06T17:08:14.182Z,7.84
2019-01-06T17:10:47.639Z,7.84
2019-01-06T17:13:34.309Z,7.90
2019-01-06T17:16:07.242Z,7.92
2019-01-06T17:18:53.854Z,7.90
2019-01-06T17:21:40.282Z,7.95
2019-01-06T17:24:19.095Z,7.95
2019-01-06T17:26:49.330Z,7.98
2019-01-06T17:29:19.612Z,7.98
2019-01-06T17:32:08.222Z,7.89
2019-01-06T17:34:54.273Z,7.88
2019-01-06T17:37:24.565Z,7.82
2019-01-06T17:40:00.737Z,7.89
2019-01-06T17:42:43.299Z,7.88
2019-01-06T17:45:16.233Z,7.86
2019-01-06T17:48:02.908Z,7.76
2019-01-06T17:50:34.097Z,7.76
2019-01-06T17:53:22.263Z,7.79
2019-01-06T17:55:55.007Z,7.84
2019-01-06T17:58:30.910Z,7.80
2019-01-06T18:01:17.738Z,7.79
2019-01-06T18:03:50.758Z,7.84
2019-01-06T18:06:26.636Z,7.91
2019-01-06T18:09:13.021Z,7.91
2019-01-06T18:11:47.724Z,7.90
2019-01-06T18:14:29.968Z,7.86
2019-01-06T18:17:02.904Z,7.75
2019-01-06T18:19:33.052Z,7.75
2019-01-06T18:22:18.238Z,7.65
2019-01-06T18:24:51.591Z,7.65
2019-01-06T18:27:37.705Z,7.67
2019-01-06T18:30:16.247Z,7.65
2019-01-06T18:33:02.395Z,7.67
2019-01-06T18:35:41.834Z,7.60
2019-01-06T18:38:28.403Z,7.54
2019-01-06T18:40:58.501Z,7.59
2019-01-06T18:43:31.323Z,7.53
2019-01-06T18:46:19.530Z,7.53
2019-01-06T18:48:58.421Z,7.54
2019-01-06T18:51:53.134Z,7.60
2019-01-06T18:54:39.949Z,7.64
2019-01-06T18:57:19.076Z,7.73
2019-01-06T18:59:49.199Z,7.72
2019-01-06T19:02:19.293Z,7.79
2019-01-06T19:04:49.366Z,7.75
2019-01-06T19:07:35.574Z,7.81
2019-01-06T19:10:09.614Z,7.79
2019-01-06T19:12:39.699Z,7.76
2019-01-06T19:15:15.970Z,7.79
2019-01-06T19:17:52.407Z,7.78
2019-01-06T19:20:25.446Z,7.65
2019-01-06T19:23:17.857Z,7.65
2019-01-06T19:25:43.939Z,7.65
2019-01-06T19:28:14.030Z,7.74
2019-01-06T19:30:50.094Z,7.74
2019-01-06T19:33:36.412Z,7.76
2019-01-06T19:36:15.498Z,7.65
2019-01-06T19:38:51.605Z,7.65
2019-01-06T19:41:24.494Z,7.64
2019-01-06T19:43:54.736Z,7.58
2019-01-06T19:46:40.982Z,7.64
2019-01-06T19:49:14.129Z,7.70
2019-01-06T19:51:47.345Z,7.66
2019-01-06T19:54:20.353Z,7.58
2019-01-06T19:56:52.925Z,7.55
2019-01-06T19:59:30.667Z,7.54
2019-01-06T20:02:13.445Z,7.53
2019-01-06T20:04:46.598Z,7.48
2019-01-06T20:07:34.974Z,7.58
2019-01-06T20:10:25.281Z,7.58
2019-01-06T20:13:09.008Z,7.45
2019-01-06T20:15:45.140Z,7.51
2019-01-06T20:18:18.285Z,7.53
2019-01-06T20:21:05.422Z,7.50
2019-01-06T20:23:38.639Z,7.57
2019-01-06T20:26:24.494Z,7.58
2019-01-06T20:29:11.057Z,7.55
2019-01-06T20:31:56.065Z,7.56
2019-01-06T20:34:42.864Z,7.54
2019-01-06T20:37:15.861Z,7.44
2019-01-06T20:40:06.377Z,7.44
2019-01-06T20:42:51.723Z,7.48
2019-01-06T20:45:37.911Z,7.39
2019-01-06T20:48:23.046Z,7.46
2019-01-06T20:50:55.731Z,7.52
2019-01-06T20:53:43.670Z,7.42
2019-01-06T20:56:14.120Z,7.46
2019-01-06T20:59:02.612Z,7.47
2019-01-06T21:01:32.683Z,7.46
2019-01-06T21:04:05.829Z,7.49
2019-01-06T21:06:56.354Z,7.44
2019-01-06T21:09:44.349Z,7.46
2019-01-06T21:12:17.401Z,7.44
2019-01-06T21:14:59.692Z,7.46
2019-01-06T21:17:46.428Z,7.45
2019-01-06T21:20:16.675Z,7.43
2019-01-06T21:22:53.341Z,7.42
2019-01-06T21:25:26.479Z,7.46
2019-01-06T21:28:08.639Z,7.49
2019-01-06T21:30:54.800Z,7.42
2019-01-06T21:33:40.845Z,7.37
2019-01-06T21:36:13.911Z,7.42
2019-01-06T21:38:44.087Z,7.40
2019-01-06T21:41:16.759Z,7.40
2019-01-06T21:44:03.110Z,7.41
2019-01-06T21:46:49.478Z,7.42
2019-01-06T21:49:25.827Z,7.28
2019-01-06T21:52:01.814Z,7.30
2019-01-06T21:54:48.059Z,7.28
2019-01-06T21:57:33.238Z,7.28
2019-01-06T22:00:19.751Z,7.29
2019-01-06T22:02:49.887Z,7.32
2019-01-06T22:05:29.025Z,7.30
2019-01-06T22:08:08.358Z,7.27
2019-01-06T22:10:55.689Z,7.35
2019-01-06T22:13:42.212Z,7.33
2019-01-06T22:16:28.730Z,7.38
2019-01-06T22:19:16.892Z,7.36
2019-01-06T22:21:52.714Z,7.36
2019-01-06T22:24:31.553Z,7.40
2019-01-06T22:27:07.614Z,7.42
2019-01-06T22:29:43.762Z,7.34
2019-01-06T22:32:25.494Z,7.34
2019-01-06T22:35:11.013Z,7.33
2019-01-06T22:37:53.287Z,7.39
2019-01-06T22:40:38.757Z,7.39
2019-01-06T22:43:08.983Z,7.40
2019-01-06T22:45:54.053Z,7.43
2019-01-06T22:48:38.955Z,7.46
2019-01-06T22:51:24.311Z,7.46
2019-01-06T22:54:10.280Z,7.39
2019-01-06T22:56:48.987Z,7.37
2019-01-06T22:59:19.181Z,7.34
2019-01-06T23:01:52.022Z,7.40
2019-01-06T23:04:38.799Z,7.45
2019-01-06T23:07:27.190Z,7.45
2019-01-06T23:10:01.281Z,7.39
2019-01-06T23:12:36.876Z,7.38
2019-01-06T23:15:25.542Z,7.41
2019-01-06T23:18:07.645Z,7.29
2019-01-06T23:20:40.620Z,7.38
2019-01-06T23:23:16.479Z,7.40
2019-01-06T23:25:49.518Z,7.33
2019-01-06T23:28:36.138Z,7.35
2019-01-06T23:31:06.199Z,7.41
2019-01-06T23:33:52.376Z,7.38
2019-01-06T23:36:26.621Z,7.33
2019-01-06T23:39:08.658Z,7.34
2019-01-06T23:41:54.870Z,7.32
2019-01-06T23:44:25.003Z,7.32
2019-01-06T23:47:03.903Z,7.29
2019-01-06T23:49:37.132Z,7.30
2019-01-06T23:52:25.036Z,7.30
2019-01-06T23:55:11.697Z,7.28
2019-01-06T23:57:57.215Z,7.31
